Terminal Aerodrome Forecast
Issued by NWS

Home | Current Version | Previous Version | Text Only | Print | Product List | Glossary On
Versions: 1 2 3 4 5 6 7 8 9 10 11 12 13 14 15 16
000
FTUS44 KOUN 261731
TAFWWR
TAF
KWWR 261731Z 2618/2718 19014G22KT P6SM VCTS SCT035CB
      TEMPO 2621/2701 2SM +TSRA BKN025CB
     FM270200 18018G26KT P6SM BKN250
     FM270600 18015G25KT P6SM BKN015
     FM271500 18012KT P6SM SCT025
      AMD NOT SKED=

USA.gov is the U.S. government's official web portal to all federal, state and local government web resources and services.